createdAt,value
2023-02-02T00:01:39.586Z,2.33
2023-02-02T00:04:08.017Z,2.36
2023-02-02T00:06:35.998Z,2.28
2023-02-02T00:09:04.172Z,2.21
2023-02-02T00:11:32.161Z,2.41
2023-02-02T00:14:01.129Z,2.28
2023-02-02T00:16:29.278Z,2.18
2023-02-02T00:19:00.166Z,2.32
2023-02-02T00:21:29.456Z,2.27
2023-02-02T00:23:57.341Z,2.30
2023-02-02T00:26:25.357Z,2.43
2023-02-02T00:28:53.558Z,2.24
2023-02-02T00:31:23.234Z,2.36
2023-02-02T00:33:51.754Z,2.43
2023-02-02T00:36:21.250Z,2.39
2023-02-02T00:38:50.137Z,2.28
2023-02-02T00:41:18.227Z,2.34
2023-02-02T00:44:06.390Z,2.44
2023-02-02T00:46:34.440Z,2.40
2023-02-02T00:49:02.384Z,2.53
2023-02-02T00:51:30.157Z,2.49
2023-02-02T00:53:58.961Z,2.35
2023-02-02T00:56:26.825Z,2.49
2023-02-02T00:58:54.888Z,2.57
2023-02-02T01:01:23.087Z,2.54
2023-02-02T01:03:51.386Z,2.38
2023-02-02T01:06:19.670Z,2.10
2023-02-02T01:08:47.706Z,2.06
2023-02-02T01:11:16.728Z,2.11
2023-02-02T01:13:44.840Z,2.11
2023-02-02T01:16:13.401Z,2.20
2023-02-02T01:18:41.211Z,2.33
2023-02-02T01:21:11.577Z,2.29
2023-02-02T01:23:40.447Z,2.51
2023-02-02T01:26:12.257Z,2.63
2023-02-02T01:28:40.693Z,2.80
2023-02-02T01:31:13.385Z,2.82
2023-02-02T01:33:42.578Z,2.83
2023-02-02T01:36:16.525Z,2.90
2023-02-02T01:38:45.702Z,2.98
2023-02-02T01:41:19.935Z,2.95
2023-02-02T01:43:47.681Z,3.06
2023-02-02T01:46:30.741Z,3.08
2023-02-02T01:49:06.121Z,3.17
2023-02-02T01:51:56.641Z,3.05
2023-02-02T01:54:32.364Z,3.06
2023-02-02T01:57:10.555Z,2.92
2023-02-02T01:59:39.099Z,2.84
2023-02-02T02:02:07.676Z,2.77
2023-02-02T02:04:35.977Z,2.62
2023-02-02T02:07:05.969Z,2.59
2023-02-02T02:09:35.062Z,2.54
2023-02-02T02:12:02.955Z,2.51
2023-02-02T02:14:49.486Z,2.45
2023-02-02T02:17:39.849Z,2.39
2023-02-02T02:20:44.980Z,2.12
2023-02-02T02:23:43.936Z,2.13
2023-02-02T02:26:43.629Z,2.08
2023-02-02T02:30:03.517Z,1.97
2023-02-02T02:32:56.117Z,1.53
2023-02-02T02:35:48.820Z,1.67
2023-02-02T02:38:41.278Z,1.69
2023-02-02T02:41:15.966Z,1.58
2023-02-02T02:43:48.409Z,1.44
2023-02-02T02:46:16.905Z,1.38
2023-02-02T02:48:46.204Z,1.37
2023-02-02T02:51:36.347Z,1.31
2023-02-02T02:54:05.661Z,1.25
2023-02-02T02:59:24.122Z,1.08
2023-02-02T03:02:22.931Z,1.13
2023-02-02T03:05:09.314Z,1.18
2023-02-02T03:08:07.943Z,1.15
2023-02-02T03:10:38.661Z,1.09
2023-02-02T03:13:11.640Z,0.86
2023-02-02T03:15:44.223Z,1.00
2023-02-02T03:18:15.651Z,0.88
2023-02-02T03:20:45.321Z,0.92
2023-02-02T03:23:14.201Z,0.99
2023-02-02T03:25:42.077Z,1.05
2023-02-02T03:28:10.318Z,1.05
2023-02-02T03:30:42.220Z,0.67
2023-02-02T03:33:12.118Z,0.88
2023-02-02T03:35:40.849Z,0.87
2023-02-02T03:38:09.294Z,0.78
2023-02-02T03:40:37.234Z,0.81
2023-02-02T03:43:05.446Z,0.69
2023-02-02T03:45:35.599Z,0.74
2023-02-02T03:48:07.084Z,0.76
2023-02-02T03:50:34.956Z,0.84
2023-02-02T03:53:02.963Z,0.42
2023-02-02T03:55:31.409Z,0.75
2023-02-02T03:58:02.205Z,0.78
2023-02-02T04:00:30.180Z,0.70
2023-02-02T04:02:59.903Z,0.31
2023-02-02T04:05:30.740Z,0.39
2023-02-02T04:07:58.846Z,0.45
2023-02-02T04:10:28.809Z,0.52
2023-02-02T04:12:56.940Z,0.46
2023-02-02T04:15:24.920Z,0.32
2023-02-02T04:17:53.203Z,0.41
2023-02-02T04:20:20.972Z,0.37
2023-02-02T04:22:48.905Z,0.48
2023-02-02T04:25:16.991Z,0.45
2023-02-02T04:27:44.818Z,0.53
2023-02-02T04:30:13.073Z,0.48
2023-02-02T04:32:40.913Z,0.63
2023-02-02T04:35:09.363Z,0.51
2023-02-02T04:37:37.269Z,0.14
2023-02-02T04:40:05.988Z,0.34
2023-02-02T04:42:35.221Z,0.44
2023-02-02T04:45:03.537Z,0.36
2023-02-02T04:47:31.458Z,0.13
2023-02-02T04:49:59.374Z,0.14
2023-02-02T04:52:27.303Z,0.23
2023-02-02T04:54:55.307Z,0.23
2023-02-02T04:57:23.299Z,0.21
2023-02-02T04:59:51.186Z,0.17
2023-02-02T05:02:19.828Z,-0.20
2023-02-02T05:04:48.012Z,-0.22
2023-02-02T05:07:15.844Z,-0.13
2023-02-02T05:09:43.815Z,-0.25
2023-02-02T05:12:12.023Z,-0.19
2023-02-02T05:14:39.951Z,-0.11
2023-02-02T05:17:07.878Z,-0.15
2023-02-02T05:19:35.866Z,-0.17
2023-02-02T05:22:03.896Z,-0.26
2023-02-02T05:24:31.906Z,-0.23
2023-02-02T05:27:00.948Z,-0.38
2023-02-02T05:29:30.343Z,-0.65
2023-02-02T05:31:58.722Z,-0.60
2023-02-02T05:34:26.873Z,-0.44
2023-02-02T05:36:55.241Z,-0.76
2023-02-02T05:39:23.210Z,-0.67
2023-02-02T05:41:51.121Z,-0.56
2023-02-02T05:44:19.185Z,-0.52
2023-02-02T05:46:47.022Z,-0.41
2023-02-02T05:49:14.983Z,-0.41
2023-02-02T05:51:48.987Z,-0.57
2023-02-02T05:54:20.740Z,-0.57
2023-02-02T05:56:52.724Z,-0.48
2023-02-02T05:59:20.747Z,-0.43
2023-02-02T06:01:49.494Z,-0.45
2023-02-02T06:04:17.602Z,-0.29
2023-02-02T06:06:45.951Z,-0.20
2023-02-02T06:09:14.290Z,-0.44
2023-02-02T06:11:43.967Z,-0.31
2023-02-02T06:14:13.323Z,-0.19
2023-02-02T06:16:41.671Z,-0.13
2023-02-02T06:19:09.735Z,-0.23
2023-02-02T06:21:37.651Z,-0.15
2023-02-02T06:24:06.032Z,0.06
2023-02-02T06:26:33.882Z,0.10
2023-02-02T06:29:02.548Z,0.14
2023-02-02T06:31:30.620Z,-0.02
2023-02-02T06:33:59.543Z,0.06
2023-02-02T06:36:28.220Z,0.05
2023-02-02T06:38:57.556Z,0.43
2023-02-02T06:41:26.234Z,0.54
2023-02-02T06:43:54.266Z,0.83
2023-02-02T06:46:22.105Z,0.97
2023-02-02T06:48:50.023Z,1.00
2023-02-02T06:51:18.098Z,0.82
2023-02-02T06:53:51.845Z,0.94
2023-02-02T06:56:19.718Z,0.99
2023-02-02T06:58:47.607Z,1.12
2023-02-02T07:01:15.845Z,1.30
2023-02-02T07:03:43.726Z,1.29
2023-02-02T07:06:19.907Z,1.29
2023-02-02T07:08:57.644Z,1.09
2023-02-02T07:11:37.238Z,1.27
2023-02-02T07:14:09.880Z,1.32
2023-02-02T07:16:37.845Z,1.17
2023-02-02T07:19:05.847Z,1.53
2023-02-02T07:21:36.525Z,1.70
2023-02-02T07:24:05.865Z,1.80
2023-02-02T07:26:34.944Z,1.69
2023-02-02T07:29:04.792Z,1.70
2023-02-02T07:31:35.823Z,1.66
2023-02-02T07:34:04.849Z,1.87
2023-02-02T07:36:33.308Z,1.83
2023-02-02T07:39:04.126Z,1.99
2023-02-02T07:41:34.038Z,2.10
2023-02-02T07:44:02.418Z,2.12
2023-02-02T07:46:30.543Z,1.99
2023-02-02T07:48:58.633Z,2.18
2023-02-02T07:51:26.926Z,2.42
2023-02-02T07:53:55.899Z,2.86
2023-02-02T07:56:26.601Z,3.72
2023-02-02T07:58:56.690Z,4.85
2023-02-02T08:01:26.596Z,6.44
2023-02-02T08:03:56.500Z,6.85
2023-02-02T08:06:28.580Z,6.75
2023-02-02T08:08:56.994Z,6.81
2023-02-02T08:11:26.400Z,7.92
2023-02-02T08:13:59.157Z,8.55
2023-02-02T08:16:29.132Z,8.76
2023-02-02T08:19:07.192Z,7.85
2023-02-02T08:21:35.815Z,7.48
2023-02-02T08:24:05.377Z,8.11
2023-02-02T08:26:33.637Z,8.64
2023-02-02T08:29:05.919Z,9.13
2023-02-02T08:31:37.816Z,9.04
2023-02-02T08:34:06.073Z,8.80
2023-02-02T08:36:35.814Z,8.37
2023-02-02T08:39:11.252Z,8.28
2023-02-02T08:41:39.585Z,8.41
2023-02-02T08:44:11.340Z,8.48
2023-02-02T08:46:40.022Z,8.12
2023-02-02T08:49:13.377Z,8.32
2023-02-02T08:51:42.229Z,8.62
2023-02-02T08:54:10.112Z,9.03
2023-02-02T08:56:38.601Z,9.44
2023-02-02T08:59:06.622Z,9.67
2023-02-02T09:01:35.407Z,10.10
2023-02-02T09:04:09.253Z,10.48
2023-02-02T09:06:41.570Z,10.46
2023-02-02T09:09:13.637Z,10.76
2023-02-02T09:11:42.512Z,11.15
2023-02-02T09:14:11.103Z,12.76
2023-02-02T09:16:39.366Z,14.40
2023-02-02T09:19:08.213Z,15.43
2023-02-02T09:21:37.535Z,15.38
2023-02-02T09:24:13.511Z,16.37
2023-02-02T09:26:42.577Z,16.66
2023-02-02T09:29:18.046Z,17.52
2023-02-02T09:31:47.169Z,17.91
2023-02-02T09:34:16.213Z,17.65
2023-02-02T09:36:44.842Z,16.33
2023-02-02T09:39:13.452Z,17.47
2023-02-02T09:41:56.169Z,17.84
2023-02-02T09:44:42.826Z,17.70
2023-02-02T09:47:17.332Z,18.00
2023-02-02T09:50:06.346Z,20.24
2023-02-02T09:52:40.929Z,21.54
2023-02-02T09:55:30.599Z,21.79
2023-02-02T09:58:28.987Z,21.04
2023-02-02T10:01:11.439Z,20.57
2023-02-02T10:04:01.953Z,21.23
2023-02-02T10:06:42.437Z,21.73
2023-02-02T10:09:24.405Z,20.75
2023-02-02T10:12:21.761Z,21.09
2023-02-02T10:15:13.491Z,21.51
2023-02-02T10:17:55.430Z,21.20
2023-02-02T10:20:45.833Z,21.78
2023-02-02T10:23:26.961Z,22.01
2023-02-02T10:25:56.866Z,21.64
2023-02-02T10:28:36.752Z,20.04
2023-02-02T10:31:06.215Z,19.47
2023-02-02T10:33:40.817Z,18.89
2023-02-02T10:36:22.254Z,18.45
2023-02-02T10:39:33.368Z,18.50
2023-02-02T10:42:16.917Z,19.34
2023-02-02T10:45:10.381Z,19.69
2023-02-02T10:47:38.978Z,21.54
2023-02-02T10:50:12.676Z,22.19
2023-02-02T10:52:45.747Z,20.37
2023-02-02T10:55:24.528Z,20.88
2023-02-02T10:57:55.071Z,19.48
2023-02-02T11:00:25.925Z,18.51
2023-02-02T11:02:54.743Z,18.11
2023-02-02T11:05:42.688Z,17.49
2023-02-02T11:08:16.427Z,16.62
2023-02-02T11:10:45.996Z,17.25
2023-02-02T11:13:31.233Z,17.09
2023-02-02T11:16:17.773Z,17.22
2023-02-02T11:18:46.684Z,18.04
2023-02-02T11:21:31.551Z,16.92
2023-02-02T11:24:03.891Z,15.05
2023-02-02T11:26:54.168Z,13.39
2023-02-02T11:29:29.850Z,12.39
2023-02-02T11:31:58.220Z,11.82
2023-02-02T11:34:28.087Z,11.12
2023-02-02T11:37:14.793Z,10.76
2023-02-02T11:39:44.435Z,10.61
2023-02-02T11:42:18.793Z,10.16
2023-02-02T11:45:15.485Z,9.91
2023-02-02T11:47:45.284Z,9.92
2023-02-02T11:50:31.581Z,10.02
2023-02-02T11:53:00.183Z,10.21
2023-02-02T11:55:30.800Z,10.06
2023-02-02T11:58:28.214Z,10.13
2023-02-02T12:01:02.141Z,10.45
2023-02-02T12:03:31.792Z,10.98
2023-02-02T12:06:02.581Z,11.68
2023-02-02T12:08:31.409Z,11.57
2023-02-02T12:11:00.458Z,10.49
2023-02-02T12:13:52.320Z,10.14
2023-02-02T12:16:27.888Z,10.25
2023-02-02T12:19:10.663Z,10.45
2023-02-02T12:22:04.730Z,10.58
2023-02-02T12:24:37.323Z,10.53
2023-02-02T12:27:12.141Z,9.67
2023-02-02T12:29:52.416Z,9.93
2023-02-02T12:32:26.132Z,10.01
2023-02-02T12:35:22.033Z,9.77
2023-02-02T12:38:08.111Z,9.49
2023-02-02T12:41:04.995Z,9.30
2023-02-02T12:43:56.009Z,9.28
2023-02-02T12:46:32.948Z,9.48
2023-02-02T12:49:24.954Z,9.34
2023-02-02T12:52:11.423Z,9.06
2023-02-02T12:54:57.385Z,9.22
2023-02-02T12:57:38.153Z,9.08
2023-02-02T13:00:12.157Z,9.00
2023-02-02T13:03:17.540Z,9.05
2023-02-02T13:06:09.943Z,8.94
2023-02-02T13:08:52.339Z,9.17
2023-02-02T13:11:35.601Z,9.09
2023-02-02T13:14:16.487Z,8.90
2023-02-02T13:16:49.570Z,8.89
2023-02-02T13:19:35.757Z,8.95
2023-02-02T13:22:07.230Z,8.87
2023-02-02T13:24:40.224Z,8.92
2023-02-02T13:27:13.810Z,8.86
2023-02-02T13:29:48.299Z,8.83
2023-02-02T13:32:32.361Z,8.87
2023-02-02T13:35:21.817Z,8.82
2023-02-02T13:38:05.293Z,8.86
2023-02-02T13:40:41.200Z,9.11
2023-02-02T13:43:16.529Z,8.83
2023-02-02T13:46:07.108Z,8.72
2023-02-02T13:49:02.417Z,8.50
2023-02-02T13:51:54.014Z,8.19
2023-02-02T13:54:44.888Z,7.91
2023-02-02T13:57:53.253Z,7.73
2023-02-02T14:00:25.646Z,7.68
2023-02-02T14:03:26.548Z,7.48
2023-02-02T14:06:25.781Z,7.67
2023-02-02T14:09:00.632Z,7.74
2023-02-02T14:11:32.831Z,7.92
2023-02-02T14:14:32.408Z,7.89
2023-02-02T14:17:08.245Z,7.94
2023-02-02T14:19:36.110Z,8.12
2023-02-02T14:22:05.613Z,8.06
2023-02-02T14:24:36.578Z,8.13
2023-02-02T14:27:44.805Z,8.00
2023-02-02T14:30:24.270Z,7.87
2023-02-02T14:32:52.557Z,7.83
2023-02-02T14:35:41.245Z,7.87
2023-02-02T14:38:22.291Z,7.88
2023-02-02T14:41:50.945Z,7.83
2023-02-02T14:44:19.535Z,7.68
2023-02-02T14:46:49.558Z,7.65
2023-02-02T14:49:21.899Z,7.57
2023-02-02T14:51:54.266Z,7.43
2023-02-02T14:54:26.792Z,7.29
2023-02-02T14:57:05.376Z,7.11
2023-02-02T14:59:39.541Z,7.22
2023-02-02T15:02:15.779Z,7.26
2023-02-02T15:04:48.067Z,7.04
2023-02-02T15:07:24.891Z,6.72
2023-02-02T15:09:56.930Z,6.48
2023-02-02T15:12:35.843Z,6.29
2023-02-02T15:15:14.406Z,5.75
2023-02-02T15:17:54.427Z,5.30
2023-02-02T15:20:47.863Z,4.89
2023-02-02T15:23:22.840Z,4.46
2023-02-02T15:26:04.574Z,4.00
2023-02-02T15:28:44.928Z,3.80
2023-02-02T15:31:35.668Z,3.50
2023-02-02T15:34:17.821Z,3.22
2023-02-02T15:36:48.789Z,2.96
2023-02-02T15:39:39.592Z,2.96
2023-02-02T15:42:39.736Z,2.84
2023-02-02T15:45:31.508Z,2.56
2023-02-02T15:48:09.527Z,2.40
2023-02-02T15:50:39.906Z,2.37
2023-02-02T15:53:19.236Z,2.35
2023-02-02T15:55:48.113Z,2.31
2023-02-02T15:58:32.639Z,2.19
2023-02-02T16:01:07.394Z,2.19
2023-02-02T16:03:43.827Z,2.21
2023-02-02T16:06:13.074Z,2.26
2023-02-02T16:08:42.349Z,2.28
2023-02-02T16:11:15.615Z,2.33
2023-02-02T16:14:05.670Z,2.33
2023-02-02T16:16:40.152Z,2.21
2023-02-02T16:19:21.575Z,2.41
2023-02-02T16:22:08.166Z,2.33
2023-02-02T16:24:48.194Z,2.27
2023-02-02T16:27:24.073Z,2.38
2023-02-02T16:29:53.238Z,2.33
2023-02-02T16:32:35.546Z,2.45
2023-02-02T16:35:27.993Z,2.41
2023-02-02T16:38:33.017Z,2.27
2023-02-02T16:41:07.550Z,2.41
2023-02-02T16:43:38.526Z,2.34
2023-02-02T16:46:07.710Z,2.42
2023-02-02T16:48:46.637Z,2.21
2023-02-02T16:51:18.022Z,2.23
2023-02-02T16:54:02.817Z,2.22
2023-02-02T16:56:34.412Z,2.36
2023-02-02T16:59:35.659Z,2.51
2023-02-02T17:02:27.117Z,2.53
2023-02-02T17:05:38.508Z,2.54
2023-02-02T17:08:08.343Z,2.55
2023-02-02T17:10:42.786Z,2.52
2023-02-02T17:13:32.891Z,2.62
2023-02-02T17:16:01.472Z,2.47
2023-02-02T17:18:29.903Z,2.50
2023-02-02T17:21:04.654Z,2.39
2023-02-02T17:23:36.637Z,2.53
2023-02-02T17:26:08.274Z,2.51
2023-02-02T17:28:41.835Z,2.40
2023-02-02T17:31:15.672Z,2.35
2023-02-02T17:33:44.450Z,2.36
2023-02-02T17:36:13.761Z,2.26
2023-02-02T17:38:42.229Z,2.17
2023-02-02T17:41:13.221Z,2.19
2023-02-02T17:43:43.127Z,2.09
2023-02-02T17:46:14.808Z,2.01
2023-02-02T17:48:43.387Z,2.01
2023-02-02T17:51:16.767Z,2.09
2023-02-02T17:53:46.834Z,2.03
2023-02-02T17:56:15.743Z,1.96
2023-02-02T17:58:44.092Z,1.98
2023-02-02T18:01:13.294Z,1.98
2023-02-02T18:03:46.071Z,2.06
2023-02-02T18:06:14.731Z,1.97
2023-02-02T18:08:43.262Z,1.95
2023-02-02T18:11:14.054Z,2.04
2023-02-02T18:13:44.620Z,1.96
2023-02-02T18:16:14.300Z,2.07
2023-02-02T18:18:43.148Z,2.14
2023-02-02T18:21:12.361Z,2.12
2023-02-02T18:23:41.595Z,2.12
2023-02-02T18:26:13.803Z,2.02
2023-02-02T18:28:42.232Z,1.95
2023-02-02T18:31:14.057Z,2.06
2023-02-02T18:33:43.615Z,2.11
2023-02-02T18:36:15.811Z,2.18
2023-02-02T18:38:45.713Z,2.21
2023-02-02T18:41:16.381Z,2.21
2023-02-02T18:43:45.977Z,2.33
2023-02-02T18:46:15.947Z,2.36
2023-02-02T18:48:45.410Z,2.42
2023-02-02T18:51:16.919Z,2.45
2023-02-02T18:53:47.108Z,2.58
2023-02-02T18:56:18.568Z,2.65
2023-02-02T18:58:47.418Z,2.79
2023-02-02T19:01:18.629Z,2.82
2023-02-02T19:03:52.171Z,2.88
2023-02-02T19:06:40.033Z,2.83
2023-02-02T19:09:12.359Z,2.82
2023-02-02T19:11:44.317Z,2.60
2023-02-02T19:14:26.891Z,2.80
2023-02-02T19:17:00.337Z,2.94
2023-02-02T19:19:33.778Z,2.93
2023-02-02T19:22:08.174Z,2.94
2023-02-02T19:24:40.740Z,2.77
2023-02-02T19:27:18.573Z,2.76
2023-02-02T19:29:53.973Z,2.86
2023-02-02T19:32:25.409Z,2.85
2023-02-02T19:34:57.633Z,2.85
2023-02-02T19:37:32.337Z,2.85
2023-02-02T19:40:09.638Z,2.72
2023-02-02T19:42:44.139Z,2.80
2023-02-02T19:45:30.267Z,2.70
2023-02-02T19:48:13.412Z,2.63
2023-02-02T19:50:42.573Z,2.55
2023-02-02T19:53:20.657Z,2.61
2023-02-02T19:55:49.532Z,2.59
2023-02-02T19:58:26.812Z,2.56
2023-02-02T20:00:57.677Z,2.56
2023-02-02T20:03:43.441Z,2.47
2023-02-02T20:06:25.234Z,2.45
2023-02-02T20:08:54.148Z,2.51
2023-02-02T20:11:37.464Z,2.54
2023-02-02T20:14:32.571Z,2.59
2023-02-02T20:17:07.054Z,2.64
2023-02-02T20:19:40.742Z,2.62
2023-02-02T20:22:35.447Z,2.66
2023-02-02T20:25:07.354Z,2.76
2023-02-02T20:27:36.020Z,2.72
2023-02-02T20:30:28.585Z,2.66
2023-02-02T20:33:01.704Z,2.74
2023-02-02T20:35:42.266Z,2.63
2023-02-02T20:38:22.958Z,2.70
2023-02-02T20:40:52.361Z,2.72
2023-02-02T20:43:20.780Z,2.69
2023-02-02T20:45:50.589Z,2.66
2023-02-02T20:48:19.595Z,2.73
2023-02-02T20:50:47.938Z,2.69
2023-02-02T20:53:16.925Z,2.63
2023-02-02T20:55:45.380Z,2.72
2023-02-02T20:58:13.960Z,2.78
2023-02-02T21:00:42.771Z,2.75
2023-02-02T21:03:13.563Z,2.77
2023-02-02T21:05:42.080Z,2.69
2023-02-02T21:08:10.498Z,2.76
2023-02-02T21:10:38.865Z,2.78
2023-02-02T21:13:07.058Z,2.76
2023-02-02T21:15:35.194Z,2.42
2023-02-02T21:18:03.131Z,2.56
2023-02-02T21:20:31.889Z,2.69
2023-02-02T21:23:01.888Z,2.68
2023-02-02T21:25:29.919Z,2.73
2023-02-02T21:28:00.403Z,2.71
2023-02-02T21:30:37.075Z,2.62
2023-02-02T21:33:06.040Z,2.65
2023-02-02T21:35:34.865Z,2.48
2023-02-02T21:38:13.240Z,2.69
2023-02-02T21:40:42.198Z,2.72
2023-02-02T21:43:18.620Z,2.56
2023-02-02T21:45:56.090Z,2.64
2023-02-02T21:48:33.116Z,2.60
2023-02-02T21:51:23.613Z,2.60
2023-02-02T21:53:52.392Z,2.61
2023-02-02T21:56:29.064Z,2.55
2023-02-02T21:59:00.761Z,2.52
2023-02-02T22:01:38.487Z,2.61
2023-02-02T22:04:25.843Z,2.53
2023-02-02T22:06:59.955Z,2.52
2023-02-02T22:09:39.827Z,2.45
2023-02-02T22:12:28.760Z,2.40
2023-02-02T22:15:05.158Z,2.24
2023-02-02T22:17:41.005Z,2.39
2023-02-02T22:20:30.313Z,2.26
2023-02-02T22:22:58.201Z,2.41
2023-02-02T22:25:35.580Z,2.38
2023-02-02T22:28:19.517Z,2.41
2023-02-02T22:30:49.112Z,2.49
2023-02-02T22:33:17.733Z,2.48
2023-02-02T22:35:46.660Z,2.56
2023-02-02T22:38:20.563Z,2.57
2023-02-02T22:40:49.829Z,2.58
2023-02-02T22:43:19.051Z,2.61
2023-02-02T22:45:48.014Z,2.57
2023-02-02T22:48:16.948Z,2.56
2023-02-02T22:50:45.156Z,2.58
2023-02-02T22:53:15.604Z,2.75
2023-02-02T22:55:43.715Z,2.56
2023-02-02T22:58:11.731Z,2.47
2023-02-02T23:00:40.028Z,2.47
2023-02-02T23:03:07.999Z,2.52
2023-02-02T23:05:35.971Z,2.59
2023-02-02T23:08:03.841Z,2.58
2023-02-02T23:10:35.711Z,2.58
2023-02-02T23:13:04.906Z,2.47
2023-02-02T23:15:33.638Z,2.57
2023-02-02T23:18:02.060Z,2.53
2023-02-02T23:20:30.055Z,2.47
2023-02-02T23:22:57.979Z,2.40
2023-02-02T23:25:26.035Z,2.47
2023-02-02T23:27:54.105Z,2.38
2023-02-02T23:30:24.815Z,2.27
2023-02-02T23:32:53.422Z,2.19
2023-02-02T23:35:21.383Z,2.22
2023-02-02T23:37:49.412Z,2.25
2023-02-02T23:40:17.513Z,2.09
2023-02-02T23:42:45.413Z,1.90
2023-02-02T23:45:16.116Z,2.03
2023-02-02T23:47:44.866Z,2.03
2023-02-02T23:50:13.303Z,2.06
2023-02-02T23:52:41.739Z,2.14
2023-02-02T23:55:10.342Z,1.91
2023-02-02T23:57:38.453Z,1.90
